sensor_id;sensor_type;location;lat;lon;timestamp;temperature;humidity
18781;DHT22;9519;51.890;8.970;2023-07-28T00:04:48;18.00;99.90
18781;DHT22;9519;51.890;8.970;2023-07-28T00:09:50;18.00;99.90
18781;DHT22;9519;51.890;8.970;2023-07-28T00:14:52;18.00;99.90
18781;DHT22;9519;51.890;8.970;2023-07-28T00:19:55;18.00;99.90
18781;DHT22;9519;51.890;8.970;2023-07-28T00:24:57;18.00;99.90
18781;DHT22;9519;51.890;8.970;2023-07-28T00:29:59;18.00;99.90
18781;DHT22;9519;51.890;8.970;2023-07-28T00:35:03;18.00;99.90
18781;DHT22;9519;51.890;8.970;2023-07-28T00:40:07;18.00;99.90
18781;DHT22;9519;51.890;8.970;2023-07-28T00:45:10;18.00;99.90
18781;DHT22;9519;51.890;8.970;2023-07-28T00:50:17;17.90;99.90
18781;DHT22;9519;51.890;8.970;2023-07-28T00:55:23;18.00;99.90
18781;DHT22;9519;51.890;8.970;2023-07-28T01:00:25;18.00;99.90
18781;DHT22;9519;51.890;8.970;2023-07-28T01:05:36;18.00;99.90
18781;DHT22;9519;51.890;8.970;2023-07-28T01:10:43;18.00;99.90
18781;DHT22;9519;51.890;8.970;2023-07-28T01:15:46;17.90;99.90
18781;DHT22;9519;51.890;8.970;2023-07-28T01:20:51;17.90;99.90
18781;DHT22;9519;51.890;8.970;2023-07-28T01:26:03;17.90;99.90
18781;DHT22;9519;51.890;8.970;2023-07-28T01:31:11;17.90;99.90
18781;DHT22;9519;51.890;8.970;2023-07-28T01:36:13;17.90;99.90
18781;DHT22;9519;51.890;8.970;2023-07-28T01:41:15;17.90;99.90
18781;DHT22;9519;51.890;8.970;2023-07-28T01:46:18;17.90;99.90
18781;DHT22;9519;51.890;8.970;2023-07-28T01:51:20;17.90;99.90
18781;DHT22;9519;51.890;8.970;2023-07-28T01:56:22;17.90;99.90
18781;DHT22;9519;51.890;8.970;2023-07-28T02:01:26;17.90;99.90
18781;DHT22;9519;51.890;8.970;2023-07-28T02:06:28;17.90;99.90
18781;DHT22;9519;51.890;8.970;2023-07-28T02:11:31;17.90;99.90
18781;DHT22;9519;51.890;8.970;2023-07-28T02:16:35;17.90;99.90
18781;DHT22;9519;51.890;8.970;2023-07-28T02:21:37;17.90;99.90
18781;DHT22;9519;51.890;8.970;2023-07-28T02:26:39;17.90;99.90
18781;DHT22;9519;51.890;8.970;2023-07-28T02:31:42;17.90;99.90
18781;DHT22;9519;51.890;8.970;2023-07-28T02:36:44;17.90;99.90
18781;DHT22;9519;51.890;8.970;2023-07-28T02:41:46;17.80;99.90
18781;DHT22;9519;51.890;8.970;2023-07-28T02:46:52;17.90;99.90
18781;DHT22;9519;51.890;8.970;2023-07-28T02:51:54;17.80;99.90
18781;DHT22;9519;51.890;8.970;2023-07-28T02:56:56;17.80;99.90
18781;DHT22;9519;51.890;8.970;2023-07-28T03:01:59;17.80;99.90
18781;DHT22;9519;51.890;8.970;2023-07-28T03:07:01;17.80;99.90
18781;DHT22;9519;51.890;8.970;2023-07-28T03:12:06;17.80;99.90
18781;DHT22;9519;51.890;8.970;2023-07-28T03:17:10;17.90;99.90
18781;DHT22;9519;51.890;8.970;2023-07-28T03:22:12;17.80;99.90
18781;DHT22;9519;51.890;8.970;2023-07-28T03:27:14;17.80;99.90
18781;DHT22;9519;51.890;8.970;2023-07-28T03:32:27;17.80;99.90
18781;DHT22;9519;51.890;8.970;2023-07-28T03:37:29;17.80;99.90
18781;DHT22;9519;51.890;8.970;2023-07-28T03:42:31;17.80;99.90
18781;DHT22;9519;51.890;8.970;2023-07-28T03:47:35;17.80;99.90
18781;DHT22;9519;51.890;8.970;2023-07-28T03:52:40;17.80;99.90
18781;DHT22;9519;51.890;8.970;2023-07-28T03:57:42;17.80;99.90
18781;DHT22;9519;51.890;8.970;2023-07-28T04:02:48;17.80;99.90
18781;DHT22;9519;51.890;8.970;2023-07-28T04:07:50;17.80;99.90
18781;DHT22;9519;51.890;8.970;2023-07-28T04:12:59;17.80;99.90
18781;DHT22;9519;51.890;8.970;2023-07-28T04:18:03;17.80;99.90
18781;DHT22;9519;51.890;8.970;2023-07-28T04:23:05;17.80;99.90
18781;DHT22;9519;51.890;8.970;2023-07-28T04:28:07;17.80;99.90
18781;DHT22;9519;51.890;8.970;2023-07-28T04:33:10;17.80;99.90
18781;DHT22;9519;51.890;8.970;2023-07-28T04:38:12;17.80;99.90
18781;DHT22;9519;51.890;8.970;2023-07-28T04:43:14;17.80;99.90
18781;DHT22;9519;51.890;8.970;2023-07-28T04:48:18;17.90;99.90
18781;DHT22;9519;51.890;8.970;2023-07-28T04:53:20;17.80;99.90
18781;DHT22;9519;51.890;8.970;2023-07-28T04:58:22;17.90;99.90
18781;DHT22;9519;51.890;8.970;2023-07-28T05:03:31;17.90;99.90
18781;DHT22;9519;51.890;8.970;2023-07-28T05:08:36;17.90;99.90
18781;DHT22;9519;51.890;8.970;2023-07-28T05:13:38;17.90;99.90
18781;DHT22;9519;51.890;8.970;2023-07-28T05:18:41;17.90;99.90
18781;DHT22;9519;51.890;8.970;2023-07-28T05:23:43;18.00;99.90
18781;DHT22;9519;51.890;8.970;2023-07-28T05:28:45;18.00;99.90
18781;DHT22;9519;51.890;8.970;2023-07-28T05:33:49;18.00;99.90
18781;DHT22;9519;51.890;8.970;2023-07-28T05:38:51;18.10;99.90
18781;DHT22;9519;51.890;8.970;2023-07-28T05:43:54;18.00;99.90
18781;DHT22;9519;51.890;8.970;2023-07-28T05:48:58;18.10;99.90
18781;DHT22;9519;51.890;8.970;2023-07-28T05:54:00;18.10;99.90
18781;DHT22;9519;51.890;8.970;2023-07-28T05:59:02;18.10;99.90
18781;DHT22;9519;51.890;8.970;2023-07-28T06:04:05;18.20;99.90
18781;DHT22;9519;51.890;8.970;2023-07-28T06:09:07;18.20;99.90
18781;DHT22;9519;51.890;8.970;2023-07-28T06:14:09;18.20;99.90
18781;DHT22;9519;51.890;8.970;2023-07-28T06:19:12;18.20;99.90
18781;DHT22;9519;51.890;8.970;2023-07-28T06:24:18;18.20;99.90
18781;DHT22;9519;51.890;8.970;2023-07-28T06:29:20;18.30;99.90
18781;DHT22;9519;51.890;8.970;2023-07-28T06:34:24;18.30;99.90
18781;DHT22;9519;51.890;8.970;2023-07-28T06:39:26;18.30;99.90
18781;DHT22;9519;51.890;8.970;2023-07-28T06:44:31;18.30;99.90
18781;DHT22;9519;51.890;8.970;2023-07-28T06:49:34;18.40;99.90
18781;DHT22;9519;51.890;8.970;2023-07-28T06:54:39;18.30;99.90
18781;DHT22;9519;51.890;8.970;2023-07-28T06:59:42;18.30;99.90
18781;DHT22;9519;51.890;8.970;2023-07-28T07:04:45;18.30;99.90
18781;DHT22;9519;51.890;8.970;2023-07-28T07:09:47;18.30;99.90
18781;DHT22;9519;51.890;8.970;2023-07-28T07:14:49;18.30;99.90
18781;DHT22;9519;51.890;8.970;2023-07-28T07:19:53;18.30;99.90
18781;DHT22;9519;51.890;8.970;2023-07-28T07:24:55;18.30;99.90
18781;DHT22;9519;51.890;8.970;2023-07-28T07:29:57;18.30;99.90
18781;DHT22;9519;51.890;8.970;2023-07-28T07:35:01;18.40;99.90
18781;DHT22;9519;51.890;8.970;2023-07-28T07:40:04;18.40;99.90
18781;DHT22;9519;51.890;8.970;2023-07-28T07:45:08;18.40;99.90
18781;DHT22;9519;51.890;8.970;2023-07-28T07:50:13;18.40;99.90
18781;DHT22;9519;51.890;8.970;2023-07-28T07:55:15;18.40;99.90
18781;DHT22;9519;51.890;8.970;2023-07-28T08:00:17;18.40;99.90
18781;DHT22;9519;51.890;8.970;2023-07-28T08:05:21;18.50;99.90
18781;DHT22;9519;51.890;8.970;2023-07-28T08:10:24;18.60;99.90
18781;DHT22;9519;51.890;8.970;2023-07-28T08:15:26;18.80;99.90
18781;DHT22;9519;51.890;8.970;2023-07-28T08:20:29;18.90;99.90
18781;DHT22;9519;51.890;8.970;2023-07-28T08:25:31;19.00;99.90
18781;DHT22;9519;51.890;8.970;2023-07-28T08:30:35;19.10;99.90
18781;DHT22;9519;51.890;8.970;2023-07-28T08:35:38;19.20;99.90
18781;DHT22;9519;51.890;8.970;2023-07-28T08:40:40;19.30;99.90
18781;DHT22;9519;51.890;8.970;2023-07-28T08:45:42;19.30;99.90
18781;DHT22;9519;51.890;8.970;2023-07-28T08:50:46;19.40;99.90
18781;DHT22;9519;51.890;8.970;2023-07-28T08:55:57;19.40;99.90
18781;DHT22;9519;51.890;8.970;2023-07-28T09:00:59;19.40;99.90
18781;DHT22;9519;51.890;8.970;2023-07-28T09:06:04;19.60;99.90
18781;DHT22;9519;51.890;8.970;2023-07-28T09:11:08;19.70;99.90
18781;DHT22;9519;51.890;8.970;2023-07-28T09:16:17;19.70;99.90
18781;DHT22;9519;51.890;8.970;2023-07-28T09:21:21;19.80;99.90
18781;DHT22;9519;51.890;8.970;2023-07-28T09:26:24;19.70;99.90
18781;DHT22;9519;51.890;8.970;2023-07-28T09:31:29;19.80;99.90
18781;DHT22;9519;51.890;8.970;2023-07-28T09:36:41;19.80;99.90
18781;DHT22;9519;51.890;8.970;2023-07-28T09:41:45;19.90;99.90
18781;DHT22;9519;51.890;8.970;2023-07-28T09:46:50;20.00;99.90
18781;DHT22;9519;51.890;8.970;2023-07-28T09:51:56;20.00;99.90
18781;DHT22;9519;51.890;8.970;2023-07-28T09:57:02;20.10;99.90
18781;DHT22;9519;51.890;8.970;2023-07-28T10:02:09;20.20;99.90
18781;DHT22;9519;51.890;8.970;2023-07-28T10:07:13;20.30;99.90
18781;DHT22;9519;51.890;8.970;2023-07-28T10:12:18;20.50;99.90
18781;DHT22;9519;51.890;8.970;2023-07-28T10:17:31;20.70;99.90
18781;DHT22;9519;51.890;8.970;2023-07-28T10:22:44;20.90;99.90
18781;DHT22;9519;51.890;8.970;2023-07-28T10:27:46;21.00;99.90
18781;DHT22;9519;51.890;8.970;2023-07-28T10:32:49;21.00;99.90
18781;DHT22;9519;51.890;8.970;2023-07-28T10:37:53;21.00;99.90
18781;DHT22;9519;51.890;8.970;2023-07-28T10:43:02;21.10;99.90
18781;DHT22;9519;51.890;8.970;2023-07-28T10:48:07;21.10;99.90
18781;DHT22;9519;51.890;8.970;2023-07-28T10:53:11;21.20;99.90
18781;DHT22;9519;51.890;8.970;2023-07-28T10:58:13;21.20;99.90
18781;DHT22;9519;51.890;8.970;2023-07-28T11:03:15;21.20;99.90
18781;DHT22;9519;51.890;8.970;2023-07-28T11:08:18;21.20;99.90
18781;DHT22;9519;51.890;8.970;2023-07-28T11:13:22;21.20;99.90
18781;DHT22;9519;51.890;8.970;2023-07-28T11:18:26;21.20;99.90
18781;DHT22;9519;51.890;8.970;2023-07-28T11:23:29;21.30;99.90
18781;DHT22;9519;51.890;8.970;2023-07-28T11:28:32;21.40;99.90
18781;DHT22;9519;51.890;8.970;2023-07-28T11:33:35;21.40;99.90
18781;DHT22;9519;51.890;8.970;2023-07-28T11:38:39;21.40;99.90
18781;DHT22;9519;51.890;8.970;2023-07-28T11:43:41;21.50;99.90
18781;DHT22;9519;51.890;8.970;2023-07-28T11:48:48;21.60;99.90
18781;DHT22;9519;51.890;8.970;2023-07-28T11:53:51;21.70;99.90
18781;DHT22;9519;51.890;8.970;2023-07-28T11:58:54;21.90;99.90
18781;DHT22;9519;51.890;8.970;2023-07-28T12:03:57;22.00;99.90
18781;DHT22;9519;51.890;8.970;2023-07-28T12:09:07;22.20;99.90
18781;DHT22;9519;51.890;8.970;2023-07-28T12:14:09;22.20;99.90
18781;DHT22;9519;51.890;8.970;2023-07-28T12:19:11;22.40;99.90
18781;DHT22;9519;51.890;8.970;2023-07-28T12:24:16;22.60;99.90
18781;DHT22;9519;51.890;8.970;2023-07-28T12:29:18;22.80;99.90
18781;DHT22;9519;51.890;8.970;2023-07-28T12:34:20;23.00;99.90
18781;DHT22;9519;51.890;8.970;2023-07-28T12:39:23;22.90;99.90
18781;DHT22;9519;51.890;8.970;2023-07-28T12:44:25;22.90;99.90
18781;DHT22;9519;51.890;8.970;2023-07-28T12:49:30;22.90;99.90
18781;DHT22;9519;51.890;8.970;2023-07-28T12:54:37;22.90;99.90
18781;DHT22;9519;51.890;8.970;2023-07-28T12:59:40;23.00;99.90
18781;DHT22;9519;51.890;8.970;2023-07-28T13:04:43;23.10;99.90
18781;DHT22;9519;51.890;8.970;2023-07-28T13:09:47;23.20;99.90
18781;DHT22;9519;51.890;8.970;2023-07-28T13:14:50;23.40;99.90
18781;DHT22;9519;51.890;8.970;2023-07-28T13:19:52;23.60;99.70
18781;DHT22;9519;51.890;8.970;2023-07-28T13:24:56;23.80;99.30
18781;DHT22;9519;51.890;8.970;2023-07-28T13:29:58;23.90;99.00
18781;DHT22;9519;51.890;8.970;2023-07-28T13:35:00;24.20;98.50
18781;DHT22;9519;51.890;8.970;2023-07-28T13:40:04;24.20;97.80
18781;DHT22;9519;51.890;8.970;2023-07-28T13:45:09;24.10;97.40
18781;DHT22;9519;51.890;8.970;2023-07-28T13:50:11;24.00;97.60
18781;DHT22;9519;51.890;8.970;2023-07-28T13:55:15;24.00;97.90
18781;DHT22;9519;51.890;8.970;2023-07-28T14:00:18;24.00;97.60
18781;DHT22;9519;51.890;8.970;2023-07-28T14:11:43;24.10;97.90
18781;DHT22;9519;51.890;8.970;2023-07-28T14:16:45;24.40;97.70
18781;DHT22;9519;51.890;8.970;2023-07-28T14:21:47;24.60;97.10
18781;DHT22;9519;51.890;8.970;2023-07-28T14:26:50;24.70;96.70
18781;DHT22;9519;51.890;8.970;2023-07-28T14:31:53;24.60;96.00
18781;DHT22;9519;51.890;8.970;2023-07-28T14:36:55;24.60;96.20
18781;DHT22;9519;51.890;8.970;2023-07-28T14:41:58;24.50;96.00
18781;DHT22;9519;51.890;8.970;2023-07-28T14:47:00;24.40;96.20
18781;DHT22;9519;51.890;8.970;2023-07-28T14:52:02;24.40;96.30
18781;DHT22;9519;51.890;8.970;2023-07-28T14:57:06;24.50;96.30
18781;DHT22;9519;51.890;8.970;2023-07-28T15:02:14;24.70;95.40
18781;DHT22;9519;51.890;8.970;2023-07-28T15:07:16;25.00;94.80
18781;DHT22;9519;51.890;8.970;2023-07-28T15:12:21;25.40;94.60
18781;DHT22;9519;51.890;8.970;2023-07-28T15:17:23;25.80;93.70
18781;DHT22;9519;51.890;8.970;2023-07-28T15:22:25;26.10;93.30
18781;DHT22;9519;51.890;8.970;2023-07-28T15:27:28;26.30;92.30
18781;DHT22;9519;51.890;8.970;2023-07-28T15:32:30;26.40;92.30
18781;DHT22;9519;51.890;8.970;2023-07-28T15:37:32;26.60;91.90
18781;DHT22;9519;51.890;8.970;2023-07-28T15:42:36;26.90;91.90
18781;DHT22;9519;51.890;8.970;2023-07-28T15:47:38;27.30;91.40
18781;DHT22;9519;51.890;8.970;2023-07-28T15:52:40;27.60;90.80
18781;DHT22;9519;51.890;8.970;2023-07-28T15:57:43;27.80;90.10
18781;DHT22;9519;51.890;8.970;2023-07-28T16:02:45;27.90;89.80
18781;DHT22;9519;51.890;8.970;2023-07-28T16:07:48;27.70;88.40
18781;DHT22;9519;51.890;8.970;2023-07-28T16:12:51;27.60;90.20
18781;DHT22;9519;51.890;8.970;2023-07-28T16:17:53;27.70;89.20
18781;DHT22;9519;51.890;8.970;2023-07-28T16:22:55;27.90;88.10
18781;DHT22;9519;51.890;8.970;2023-07-28T16:27:59;28.10;88.80
18781;DHT22;9519;51.890;8.970;2023-07-28T16:33:01;28.50;88.00
18781;DHT22;9519;51.890;8.970;2023-07-28T16:38:03;29.00;87.60
18781;DHT22;9519;51.890;8.970;2023-07-28T16:43:06;29.30;86.00
18781;DHT22;9519;51.890;8.970;2023-07-28T16:48:08;29.40;84.00
18781;DHT22;9519;51.890;8.970;2023-07-28T16:53:10;29.70;83.40
18781;DHT22;9519;51.890;8.970;2023-07-28T16:58:15;30.00;81.70
18781;DHT22;9519;51.890;8.970;2023-07-28T17:03:17;29.90;79.80
18781;DHT22;9519;51.890;8.970;2023-07-28T17:08:20;29.80;79.00
18781;DHT22;9519;51.890;8.970;2023-07-28T17:13:23;30.00;79.80
18781;DHT22;9519;51.890;8.970;2023-07-28T17:18:25;30.30;78.70
18781;DHT22;9519;51.890;8.970;2023-07-28T17:23:27;30.40;77.50
18781;DHT22;9519;51.890;8.970;2023-07-28T17:28:31;30.50;75.70
18781;DHT22;9519;51.890;8.970;2023-07-28T17:33:33;30.30;75.60
18781;DHT22;9519;51.890;8.970;2023-07-28T17:38:35;30.20;74.70
18781;DHT22;9519;51.890;8.970;2023-07-28T17:43:39;29.80;74.10
18781;DHT22;9519;51.890;8.970;2023-07-28T17:48:41;29.40;74.20
18781;DHT22;9519;51.890;8.970;2023-07-28T17:53:43;29.00;74.80
18781;DHT22;9519;51.890;8.970;2023-07-28T17:58:47;28.60;74.50
18781;DHT22;9519;51.890;8.970;2023-07-28T18:03:49;28.10;75.50
18781;DHT22;9519;51.890;8.970;2023-07-28T18:08:54;27.80;77.00
18781;DHT22;9519;51.890;8.970;2023-07-28T18:13:58;27.50;77.30
18781;DHT22;9519;51.890;8.970;2023-07-28T18:19:00;27.10;77.60
18781;DHT22;9519;51.890;8.970;2023-07-28T18:24:02;26.70;78.50
18781;DHT22;9519;51.890;8.970;2023-07-28T18:29:06;26.30;79.60
18781;DHT22;9519;51.890;8.970;2023-07-28T18:34:08;25.90;80.80
18781;DHT22;9519;51.890;8.970;2023-07-28T18:39:10;25.60;81.80
18781;DHT22;9519;51.890;8.970;2023-07-28T18:44:13;25.40;83.00
18781;DHT22;9519;51.890;8.970;2023-07-28T18:49:15;25.10;84.10
18781;DHT22;9519;51.890;8.970;2023-07-28T18:54:18;24.80;85.40
18781;DHT22;9519;51.890;8.970;2023-07-28T18:59:23;24.50;86.60
18781;DHT22;9519;51.890;8.970;2023-07-28T19:04:25;24.30;87.60
18781;DHT22;9519;51.890;8.970;2023-07-28T19:09:27;24.20;88.20
18781;DHT22;9519;51.890;8.970;2023-07-28T19:14:31;24.10;89.00
18781;DHT22;9519;51.890;8.970;2023-07-28T19:19:33;23.90;89.60
18781;DHT22;9519;51.890;8.970;2023-07-28T19:24:35;23.70;90.00
18781;DHT22;9519;51.890;8.970;2023-07-28T19:29:38;23.50;90.30
18781;DHT22;9519;51.890;8.970;2023-07-28T19:34:42;23.30;91.00
18781;DHT22;9519;51.890;8.970;2023-07-28T19:39:44;23.10;90.90
18781;DHT22;9519;51.890;8.970;2023-07-28T19:44:52;23.00;91.30
18781;DHT22;9519;51.890;8.970;2023-07-28T19:49:56;22.90;91.70
18781;DHT22;9519;51.890;8.970;2023-07-28T19:54:58;22.70;91.90
18781;DHT22;9519;51.890;8.970;2023-07-28T20:00:02;22.60;92.20
18781;DHT22;9519;51.890;8.970;2023-07-28T20:05:06;22.50;92.50
18781;DHT22;9519;51.890;8.970;2023-07-28T20:10:10;22.40;92.70
18781;DHT22;9519;51.890;8.970;2023-07-28T20:15:14;22.40;93.00
18781;DHT22;9519;51.890;8.970;2023-07-28T20:20:16;22.30;93.20
18781;DHT22;9519;51.890;8.970;2023-07-28T20:25:18;22.30;93.40
18781;DHT22;9519;51.890;8.970;2023-07-28T20:30:22;22.20;93.60
18781;DHT22;9519;51.890;8.970;2023-07-28T20:35:24;22.20;93.90
18781;DHT22;9519;51.890;8.970;2023-07-28T20:40:27;22.10;94.00
18781;DHT22;9519;51.890;8.970;2023-07-28T20:45:30;22.10;94.20
18781;DHT22;9519;51.890;8.970;2023-07-28T20:50:32;22.00;94.30
18781;DHT22;9519;51.890;8.970;2023-07-28T20:55:34;22.10;94.50
18781;DHT22;9519;51.890;8.970;2023-07-28T21:00:38;22.00;94.70
18781;DHT22;9519;51.890;8.970;2023-07-28T21:05:40;22.00;94.80
18781;DHT22;9519;51.890;8.970;2023-07-28T21:10:42;22.00;94.90
18781;DHT22;9519;51.890;8.970;2023-07-28T21:15:45;22.00;95.00
18781;DHT22;9519;51.890;8.970;2023-07-28T21:20:47;22.00;95.10
18781;DHT22;9519;51.890;8.970;2023-07-28T21:25:49;22.00;95.20
18781;DHT22;9519;51.890;8.970;2023-07-28T21:30:53;21.90;95.20
18781;DHT22;9519;51.890;8.970;2023-07-28T21:35:55;21.90;95.60
18781;DHT22;9519;51.890;8.970;2023-07-28T21:40:57;21.80;95.30
18781;DHT22;9519;51.890;8.970;2023-07-28T21:46:01;21.80;95.40
18781;DHT22;9519;51.890;8.970;2023-07-28T21:51:04;21.70;95.50
18781;DHT22;9519;51.890;8.970;2023-07-28T21:56:07;21.60;95.60
18781;DHT22;9519;51.890;8.970;2023-07-28T22:01:11;21.50;95.70
18781;DHT22;9519;51.890;8.970;2023-07-28T22:06:13;21.50;95.80
18781;DHT22;9519;51.890;8.970;2023-07-28T22:11:15;21.40;95.80
18781;DHT22;9519;51.890;8.970;2023-07-28T22:16:18;21.40;95.90
18781;DHT22;9519;51.890;8.970;2023-07-28T22:21:20;21.30;96.00
18781;DHT22;9519;51.890;8.970;2023-07-28T22:26:22;21.20;96.10
18781;DHT22;9519;51.890;8.970;2023-07-28T22:31:26;21.10;96.10
18781;DHT22;9519;51.890;8.970;2023-07-28T22:36:28;21.00;96.20
18781;DHT22;9519;51.890;8.970;2023-07-28T22:41:30;20.80;96.30
18781;DHT22;9519;51.890;8.970;2023-07-28T22:46:34;20.70;96.50
18781;DHT22;9519;51.890;8.970;2023-07-28T22:51:36;20.60;96.70
18781;DHT22;9519;51.890;8.970;2023-07-28T22:56:38;20.50;97.10
18781;DHT22;9519;51.890;8.970;2023-07-28T23:01:41;20.50;96.90
18781;DHT22;9519;51.890;8.970;2023-07-28T23:06:43;20.40;97.00
18781;DHT22;9519;51.890;8.970;2023-07-28T23:11:45;20.30;97.10
18781;DHT22;9519;51.890;8.970;2023-07-28T23:16:49;20.30;97.30
18781;DHT22;9519;51.890;8.970;2023-07-28T23:21:51;20.20;97.40
18781;DHT22;9519;51.890;8.970;2023-07-28T23:26:53;20.20;97.70
18781;DHT22;9519;51.890;8.970;2023-07-28T23:31:57;20.10;97.80
18781;DHT22;9519;51.890;8.970;2023-07-28T23:36:59;20.10;97.90
18781;DHT22;9519;51.890;8.970;2023-07-28T23:42:01;20.10;98.00
18781;DHT22;9519;51.890;8.970;2023-07-28T23:47:05;20.10;98.10
18781;DHT22;9519;51.890;8.970;2023-07-28T23:52:07;20.00;98.10
18781;DHT22;9519;51.890;8.970;2023-07-28T23:57:09;20.00;98.10
